Flugplatz Offenburg (EDTO)

Hier findest Du alle Informationen zum Flugplatz Offenburg (EDTO).

Informationen für Piloten zum Flugplatz Offenburg

Hier findest Du alle relevanten Informationen, die Du als Pilot benötigst, um Offenburg anzufliegen.

Flugplatz: Offenburg ICAO-Code: EDTO
Frequenz Turm: 119,750 Mhz GAFOR Gebiet: 61
Frequenz Ground: 119,750 Mhz Mogas: nein
Platzrunde: NO 1200 ft Landegebühr: -
Platzhöhe: - Sunrise: 07:10 Uhr UTC
Pisten: 02/20 - 910 m x 20 m, ASPH Sunset: 16:07 Uhr UTC

Flugwetter am Flugplatz Offenburg

Die METAR Information stammen aus EDTL (11.46 km entfernt).

METAR Code:
2019/01/04 14:50
EDTL 041450Z 31002KT CAVOK 03/M01 Q1036

Temperatur: -3,3 °C Niederschlag: - Wind: 1,9 kt
Temperatur (min.): -4,0 °C Luftdruck: 1017 hPa Windrichtung: -
Temperatur (max.): -3,0 °C Luftfeuchtigkeit: 86 % Bewölkung: -

Flugschulen am Flugplatz Offenburg

Am Flugplatz Offenburg gibt es 2 Flugschulen.

Benachbarte Flugplätze und Flugschulen

Es gibt 8 weitere Flugplätze in einem Umkreis von 50 km um den Flugplatz Offenburg.

Jetzt anmelden

Passwort vergessen

Umfrage Archiv

Welche Art von Theorieunterricht würde Dir am ehesten zusagen?

Frontalunterricht
64.1 %
Selbststudium
35.9 %
Stimmen: 301 | Diskussion
Anzeige: Roland Aircraft
Statistik Alle Mitglieder

Aktuell sind 28 Besucher online, davon 1 Mitglied und 27 Gäste.


Mitglieder online:
hennes 

Anzeige: VFR Sprechfunk Simulator


Anzeige: Pocket FMS